Time;durP1;ratioP1;P1;durP2;ratioP2;P2;SDS_P1;SDS_P2;PMS_P1;PMS_P2;Temp;Humidity;BMP_temperature;BMP_pressure;BME280_temperature;BME280_humidity;BME280_pressure;Samples;Min_cycle;Max_cycle;Signal;HPM_P1;HPM_P2
2023/01/10 00:00:38;;;;;;;1.97;1.10;;;9.00;99.90;;;;;;5045322;28;20614;-68
2023/01/10 00:03:08;;;;;;;5.50;1.20;;;9.00;99.90;;;;;;5077736;28;20453;-69
2023/01/10 00:05:38;;;;;;;2.27;0.87;;;9.00;99.90;;;;;;5078349;28;20472;-69
2023/01/10 00:08:07;;;;;;;2.13;0.93;;;9.00;99.90;;;;;;5071694;28;20475;-70
2023/01/10 00:10:37;;;;;;;5.20;0.80;;;9.00;99.90;;;;;;5064349;28;21140;-69
2023/01/10 00:13:22;;;;;;;1.00;0.70;;;9.00;99.90;;;;;;5072957;28;20954;-69
2023/01/10 00:15:52;;;;;;;2.10;1.23;;;9.00;99.90;;;;;;5088585;28;20474;-69
2023/01/10 00:18:21;;;;;;;1.83;1.07;;;9.00;99.90;;;;;;5067329;28;20519;-70
2023/01/10 00:20:50;;;;;;;1.77;0.70;;;9.00;99.90;;;;;;5068716;28;20968;-69
2023/01/10 00:23:22;;;;;;;1.23;1.00;;;9.00;99.90;;;;;;5058895;28;20468;-69
2023/01/10 00:25:51;;;;;;;1.63;1.03;;;9.00;99.90;;;;;;5070224;28;21106;-69
2023/01/10 00:28:20;;;;;;;1.57;1.13;;;9.00;99.90;;;;;;5069863;28;20504;-68
2023/01/10 00:30:56;;;;;;;2.30;0.70;;;9.00;99.90;;;;;;5063441;28;20485;-69
2023/01/10 00:33:24;;;;;;;2.27;1.10;;;9.00;99.90;;;;;;5068112;28;21248;-67
2023/01/10 00:35:53;;;;;;;1.40;0.67;;;9.00;99.90;;;;;;5069692;28;20490;-68
2023/01/10 00:38:21;;;;;;;2.13;1.57;;;9.00;99.90;;;;;;5075837;28;20535;-69
2023/01/10 00:40:51;;;;;;;1.60;1.27;;;9.00;99.90;;;;;;5071669;28;20550;-70
2023/01/10 00:46:05;;;;;;;1.50;1.00;;;9.00;99.90;;;;;;5060251;28;20564;-69
2023/01/10 00:48:33;;;;;;;4.03;1.10;;;9.00;99.90;;;;;;5068095;28;20446;-68
2023/01/10 00:51:02;;;;;;;3.60;1.33;;;9.00;99.90;;;;;;5065643;28;20471;-68
2023/01/10 00:53:31;;;;;;;3.03;0.90;;;9.00;99.90;;;;;;5060762;28;20560;-69
2023/01/10 00:56:01;;;;;;;1.70;1.23;;;9.00;99.90;;;;;;5060794;28;20506;-70
2023/01/10 00:58:29;;;;;;;4.20;1.17;;;9.00;99.90;;;;;;5058986;28;20538;-69
2023/01/10 01:00:57;;;;;;;4.53;1.30;;;9.00;99.90;;;;;;5078408;28;20485;-69
2023/01/10 01:03:26;;;;;;;2.17;1.10;;;9.00;99.90;;;;;;5064794;28;20989;-68
2023/01/10 01:05:54;;;;;;;2.70;1.33;;;9.00;99.90;;;;;;5063375;28;20473;-70
2023/01/10 01:08:22;;;;;;;3.73;0.90;;;9.00;99.90;;;;;;5055082;28;20435;-69
2023/01/10 01:10:51;;;;;;;2.70;1.20;;;9.00;99.90;;;;;;5062611;28;20532;-69
2023/01/10 01:13:22;;;;;;;1.87;1.00;;;9.00;99.90;;;;;;5063706;28;20521;-69
2023/01/10 01:15:50;;;;;;;1.90;1.07;;;9.00;99.90;;;;;;5062916;28;20507;-68
2023/01/10 01:18:21;;;;;;;2.00;0.93;;;9.00;99.90;;;;;;5066064;28;20435;-69
2023/01/10 01:20:53;;;;;;;2.30;0.97;;;9.00;99.90;;;;;;5059060;28;20569;-69
2023/01/10 01:23:22;;;;;;;1.70;1.50;;;8.90;99.90;;;;;;5064462;28;20432;-68
2023/01/10 01:25:51;;;;;;;3.33;0.90;;;9.00;99.90;;;;;;5049458;28;20478;-68
2023/01/10 01:28:21;;;;;;;2.30;1.03;;;9.00;99.90;;;;;;5064529;28;20441;-68
2023/01/10 01:30:50;;;;;;;1.30;1.10;;;9.00;99.90;;;;;;5055426;28;20502;-69
2023/01/10 01:33:20;;;;;;;1.40;1.00;;;9.00;99.90;;;;;;5061470;28;21250;-69
2023/01/10 01:35:49;;;;;;;0.93;0.83;;;9.00;99.90;;;;;;5073571;28;20460;-69
2023/01/10 01:38:18;;;;;;;1.30;0.97;;;9.00;99.90;;;;;;5064077;28;20465;-68
2023/01/10 01:40:46;;;;;;;2.50;1.00;;;9.00;99.90;;;;;;5071207;28;20890;-69
2023/01/10 01:43:27;;;;;;;1.73;1.13;;;9.00;99.90;;;;;;5068384;28;20544;-69
2023/01/10 01:45:58;;;;;;;1.20;0.83;;;9.00;99.90;;;;;;5061954;28;21158;-68
2023/01/10 01:48:35;;;;;;;3.40;1.20;;;8.90;99.90;;;;;;5060056;28;20444;-68
2023/01/10 01:51:10;;;;;;;3.03;1.07;;;8.90;99.90;;;;;;5071101;28;20458;-69
2023/01/10 01:53:42;;;;;;;2.60;0.77;;;8.90;99.90;;;;;;5058434;28;20456;-68
2023/01/10 01:56:17;;;;;;;4.10;1.37;;;8.90;99.90;;;;;;5059939;28;20477;-69
2023/01/10 01:58:50;;;;;;;2.70;1.20;;;8.90;99.90;;;;;;5073463;28;21246;-69
2023/01/10 02:01:21;;;;;;;1.60;1.00;;;8.90;99.90;;;;;;5057782;28;20528;-67
2023/01/10 02:03:54;;;;;;;2.20;0.87;;;8.90;99.90;;;;;;5068037;28;20438;-69
2023/01/10 02:06:25;;;;;;;2.90;1.07;;;8.90;99.90;;;;;;5077993;28;20988;-69
2023/01/10 02:09:02;;;;;;;2.73;1.10;;;8.90;99.90;;;;;;5065098;28;20437;-68
2023/01/10 02:11:34;;;;;;;1.30;0.90;;;8.90;99.90;;;;;;5065932;28;20479;-68
2023/01/10 02:14:06;;;;;;;1.70;1.10;;;8.90;99.90;;;;;;5072018;28;20557;-67
2023/01/10 02:16:34;;;;;;;1.80;1.00;;;8.90;99.90;;;;;;5043176;28;20478;-71
2023/01/10 02:19:04;;;;;;;3.93;1.10;;;8.90;99.90;;;;;;5044943;28;20485;-70
2023/01/10 02:21:58;;;;;;;1.43;0.83;;;8.90;99.90;;;;;;5041892;28;20571;-69
2023/01/10 02:25:18;;;;;;;1.80;1.20;;;8.90;99.90;;;;;;5046572;28;20639;-70
2023/01/10 02:28:06;;;;;;;1.00;0.60;;;8.90;99.90;;;;;;4971750;28;20446;-69
2023/01/10 02:31:00;;;;;;;1.70;1.33;;;8.90;99.90;;;;;;4994372;28;21118;-68
2023/01/10 02:33:33;;;;;;;3.80;1.03;;;8.90;99.90;;;;;;5045113;28;20559;-69
2023/01/10 02:36:20;;;;;;;2.03;1.30;;;8.90;99.90;;;;;;5046814;28;20471;-69
2023/01/10 02:38:58;;;;;;;3.13;0.83;;;8.90;99.90;;;;;;5058840;28;20744;-71
2023/01/10 02:41:31;;;;;;;1.27;1.10;;;8.90;99.90;;;;;;5052954;28;20548;-68
2023/01/10 02:44:04;;;;;;;3.80;1.20;;;8.90;99.90;;;;;;5051305;28;20440;-69
2023/01/10 02:46:35;;;;;;;1.10;0.97;;;8.90;99.90;;;;;;5049559;28;21063;-70
2023/01/10 02:49:05;;;;;;;1.57;1.20;;;8.90;99.90;;;;;;5057408;28;20438;-70
2023/01/10 02:51:33;;;;;;;1.63;0.90;;;8.90;99.90;;;;;;5058267;28;20486;-70
2023/01/10 02:54:07;;;;;;;2.40;1.07;;;8.90;99.90;;;;;;5044807;28;20472;-68
2023/01/10 02:57:14;;;;;;;1.60;1.00;;;8.90;99.90;;;;;;5046731;28;20475;-70
2023/01/10 02:59:55;;;;;;;2.00;1.10;;;8.90;99.90;;;;;;5053490;28;20466;-68
2023/01/10 03:02:36;;;;;;;2.20;2.00;;;8.90;99.90;;;;;;5044883;28;21024;-70
2023/01/10 03:05:16;;;;;;;4.53;1.60;;;8.90;99.90;;;;;;5045708;28;20467;-68
2023/01/10 03:07:53;;;;;;;3.80;1.07;;;8.90;99.90;;;;;;5046349;28;20504;-70
2023/01/10 03:10:28;;;;;;;1.80;0.93;;;8.90;99.90;;;;;;5058850;28;20470;-69
2023/01/10 03:13:01;;;;;;;1.47;0.90;;;8.80;99.90;;;;;;5053818;28;20549;-69
2023/01/10 03:15:35;;;;;;;1.83;1.07;;;8.80;99.90;;;;;;5039859;28;20508;-70
2023/01/10 03:18:07;;;;;;;4.87;1.10;;;8.80;99.90;;;;;;5073009;28;20522;-68
2023/01/10 03:20:38;;;;;;;4.03;1.30;;;8.80;99.90;;;;;;5046318;28;20479;-70
2023/01/10 03:23:07;;;;;;;1.80;1.00;;;8.80;99.90;;;;;;5045156;28;20494;-68
2023/01/10 03:25:37;;;;;;;1.50;0.87;;;8.80;99.90;;;;;;5051396;28;20540;-69
2023/01/10 03:28:10;;;;;;;4.40;2.47;;;8.80;99.90;;;;;;5049455;28;20483;-69
2023/01/10 03:30:43;;;;;;;2.90;1.53;;;8.80;99.90;;;;;;5039153;28;20590;-69
2023/01/10 03:33:12;;;;;;;2.33;0.90;;;8.80;99.90;;;;;;5058731;28;20919;-69
2023/01/10 03:35:56;;;;;;;2.20;0.90;;;8.80;99.90;;;;;;5050354;28;20552;-68
2023/01/10 03:38:31;;;;;;;3.63;1.30;;;8.80;99.90;;;;;;5040788;28;20287;-69
2023/01/10 03:41:05;;;;;;;1.90;1.10;;;8.80;99.90;;;;;;5038253;28;20467;-69
2023/01/10 03:46:32;;;;;;;4.20;1.20;;;8.80;99.90;;;;;;5038237;28;20480;-69
2023/01/10 03:49:03;;;;;;;1.27;1.00;;;8.80;99.90;;;;;;5039843;28;20442;-68
2023/01/10 03:51:36;;;;;;;2.93;1.03;;;8.80;99.90;;;;;;5057511;28;20482;-70
2023/01/10 03:54:05;;;;;;;2.65;1.65;;;8.80;99.90;;;;;;5037419;28;20468;-70
2023/01/10 03:56:44;;;;;;;2.83;1.47;;;8.80;99.90;;;;;;5057446;28;20740;-69
2023/01/10 03:59:13;;;;;;;2.70;0.93;;;8.80;99.90;;;;;;5054641;28;20444;-67
2023/01/10 04:01:41;;;;;;;1.90;1.10;;;8.80;99.90;;;;;;5060965;28;20474;-69
2023/01/10 04:04:10;;;;;;;4.30;1.37;;;8.80;99.90;;;;;;5047501;28;20500;-70
2023/01/10 04:06:40;;;;;;;2.57;1.33;;;8.80;99.90;;;;;;5078711;28;20903;-70
2023/01/10 04:09:09;;;;;;;8.97;2.70;;;8.80;99.90;;;;;;5068310;28;21147;-69
2023/01/10 04:11:37;;;;;;;6.07;1.20;;;8.80;99.90;;;;;;5067569;28;20512;-69
2023/01/10 04:14:05;;;;;;;1.10;0.80;;;8.80;99.90;;;;;;5063662;28;20508;-69
2023/01/10 04:16:34;;;;;;;2.73;1.30;;;8.80;99.90;;;;;;5061723;28;20833;-69
2023/01/10 04:19:02;;;;;;;3.00;1.00;;;8.80;99.90;;;;;;5062065;28;20533;-69
2023/01/10 04:21:31;;;;;;;2.67;1.50;;;8.80;99.90;;;;;;5058129;28;20470;-69
2023/01/10 04:24:00;;;;;;;3.37;1.23;;;8.80;99.90;;;;;;5060466;28;20971;-69
2023/01/10 04:26:29;;;;;;;2.15;1.10;;;8.80;99.90;;;;;;5062339;28;20495;-70
2023/01/10 04:28:57;;;;;;;1.43;0.73;;;8.80;99.90;;;;;;5058691;28;20220;-69
2023/01/10 04:31:25;;;;;;;2.00;0.83;;;8.80;99.90;;;;;;5063550;28;20491;-70
2023/01/10 04:33:54;;;;;;;1.47;0.80;;;8.80;99.90;;;;;;5073129;28;20441;-70
2023/01/10 04:36:22;;;;;;;2.27;0.97;;;8.80;99.90;;;;;;5074217;28;20522;-68
2023/01/10 04:38:51;;;;;;;3.23;1.73;;;8.80;99.90;;;;;;5063692;28;21399;-69
2023/01/10 04:41:20;;;;;;;1.70;0.97;;;8.80;99.90;;;;;;5068357;28;20513;-70
2023/01/10 04:43:49;;;;;;;2.60;0.80;;;8.80;99.90;;;;;;5058603;28;20548;-69
2023/01/10 04:46:18;;;;;;;1.87;1.13;;;8.80;99.90;;;;;;5063602;28;20910;-68
2023/01/10 04:48:46;;;;;;;5.60;1.30;;;8.80;99.90;;;;;;5072483;28;20430;-69
2023/01/10 04:51:14;;;;;;;2.10;1.00;;;8.80;99.90;;;;;;5074544;28;20901;-68
2023/01/10 04:53:43;;;;;;;2.53;0.87;;;8.80;99.90;;;;;;5065927;28;20443;-69
2023/01/10 04:56:20;;;;;;;2.20;1.00;;;8.80;99.90;;;;;;5072194;28;20536;-69
2023/01/10 04:58:50;;;;;;;3.47;1.50;;;8.80;99.90;;;;;;5062521;28;20490;-67
2023/01/10 05:01:23;;;;;;;4.30;1.40;;;8.80;99.90;;;;;;5059814;28;20474;-69
2023/01/10 05:03:52;;;;;;;2.80;1.00;;;8.80;99.90;;;;;;5070130;28;20452;-67
2023/01/10 05:06:22;;;;;;;4.30;1.27;;;8.70;99.90;;;;;;5054461;28;20471;-69
2023/01/10 05:08:51;;;;;;;1.00;0.77;;;8.70;99.90;;;;;;5060722;28;21064;-70
2023/01/10 05:11:20;;;;;;;2.67;1.10;;;8.70;99.90;;;;;;5064781;28;21443;-70
2023/01/10 05:13:49;;;;;;;5.33;1.23;;;8.70;99.90;;;;;;5067404;28;20470;-68
2023/01/10 05:16:17;;;;;;;3.50;1.40;;;8.70;99.90;;;;;;5056482;28;21014;-70
2023/01/10 05:18:46;;;;;;;1.63;1.10;;;8.70;99.90;;;;;;5061555;28;20452;-67
2023/01/10 05:21:14;;;;;;;1.40;0.90;;;8.70;99.90;;;;;;5058903;28;21127;-70
2023/01/10 05:23:43;;;;;;;2.65;1.00;;;8.70;99.90;;;;;;5064941;28;20804;-69
2023/01/10 05:26:13;;;;;;;3.40;1.08;;;8.70;99.90;;;;;;5071549;28;20300;-69
2023/01/10 05:28:44;;;;;;;1.97;1.20;;;8.70;99.90;;;;;;5067523;28;20202;-70
2023/01/10 05:31:15;;;;;;;7.72;1.40;;;8.70;99.90;;;;;;5056325;28;20509;-69
2023/01/10 05:33:45;;;;;;;1.60;1.07;;;8.70;99.90;;;;;;5060081;28;20210;-70
2023/01/10 05:36:14;;;;;;;4.57;1.20;;;8.70;99.90;;;;;;5062036;28;20478;-69
2023/01/10 05:38:42;;;;;;;2.30;0.93;;;8.70;99.90;;;;;;5058779;28;20427;-68
2023/01/10 05:41:11;;;;;;;2.37;1.00;;;8.70;99.90;;;;;;5059808;28;20562;-68
2023/01/10 05:43:39;;;;;;;2.60;1.10;;;8.70;99.90;;;;;;5077006;28;20439;-69
2023/01/10 05:46:09;;;;;;;4.23;1.10;;;8.70;99.90;;;;;;5058573;28;20469;-69
2023/01/10 05:48:38;;;;;;;2.67;1.10;;;8.70;99.90;;;;;;5078455;28;20443;-71
2023/01/10 05:51:07;;;;;;;1.33;0.93;;;8.70;99.90;;;;;;5071577;28;20531;-69
2023/01/10 05:53:35;;;;;;;1.30;0.93;;;8.70;99.90;;;;;;5069427;28;20553;-67
2023/01/10 05:56:06;;;;;;;1.53;1.30;;;8.70;99.90;;;;;;5080700;28;20506;-69
2023/01/10 05:58:34;;;;;;;3.10;1.30;;;8.70;99.90;;;;;;5060476;28;20439;-70
2023/01/10 06:01:03;;;;;;;1.90;1.30;;;8.70;99.90;;;;;;5059330;28;20476;-67
2023/01/10 06:03:33;;;;;;;1.50;1.23;;;8.70;99.90;;;;;;5075200;28;20440;-69
2023/01/10 06:06:02;;;;;;;2.03;1.00;;;8.70;99.90;;;;;;5064338;28;20504;-69
2023/01/10 06:08:31;;;;;;;1.60;0.70;;;8.70;99.90;;;;;;5058515;28;20527;-69
2023/01/10 06:10:59;;;;;;;1.77;1.20;;;8.60;99.90;;;;;;5057949;28;20552;-69
2023/01/10 06:13:27;;;;;;;4.07;1.90;;;8.60;99.90;;;;;;5064232;28;21009;-69
2023/01/10 06:15:56;;;;;;;3.20;1.27;;;8.60;99.90;;;;;;5052862;28;20498;-69
2023/01/10 06:18:24;;;;;;;3.60;1.40;;;8.60;99.90;;;;;;5075080;28;20227;-69
2023/01/10 06:20:54;;;;;;;3.20;1.20;;;8.60;99.90;;;;;;5059569;28;20467;-70
2023/01/10 06:23:23;;;;;;;2.30;1.03;;;8.70;99.90;;;;;;5071769;28;20192;-70
2023/01/10 06:25:51;;;;;;;1.97;1.10;;;8.60;99.90;;;;;;5074710;28;20536;-69
2023/01/10 06:28:20;;;;;;;1.90;1.40;;;8.60;99.90;;;;;;5062302;28;20437;-69
2023/01/10 06:30:48;;;;;;;4.10;1.33;;;8.60;99.90;;;;;;5063673;28;20567;-68
2023/01/10 06:33:16;;;;;;;1.92;1.05;;;8.60;99.90;;;;;;5069395;28;20483;-69
2023/01/10 06:35:46;;;;;;;2.13;0.80;;;8.60;99.90;;;;;;5066746;28;20239;-69
2023/01/10 06:38:17;;;;;;;2.17;0.88;;;8.60;99.90;;;;;;5057318;28;20537;-69
2023/01/10 06:40:45;;;;;;;2.90;0.90;;;8.60;99.90;;;;;;5065964;28;20247;-68
2023/01/10 06:43:14;;;;;;;7.20;1.20;;;8.60;99.90;;;;;;5057967;28;20458;-70
2023/01/10 06:45:42;;;;;;;1.83;1.33;;;8.60;99.90;;;;;;5062133;28;20463;-70
2023/01/10 06:48:11;;;;;;;1.73;1.10;;;8.60;99.90;;;;;;5075229;28;20517;-69
2023/01/10 06:50:39;;;;;;;4.00;1.20;;;8.60;99.90;;;;;;5062889;28;20482;-69
2023/01/10 06:53:07;;;;;;;3.78;1.20;;;8.60;99.90;;;;;;5067807;28;20475;-69
2023/01/10 06:55:37;;;;;;;4.38;1.50;;;8.60;99.90;;;;;;5066754;28;20216;-70
2023/01/10 06:58:05;;;;;;;1.97;1.03;;;8.60;99.90;;;;;;5060946;28;20256;-70
2023/01/10 07:00:34;;;;;;;4.00;1.10;;;8.60;99.90;;;;;;5054259;28;20482;-68
2023/01/10 07:03:02;;;;;;;2.90;1.17;;;8.60;99.90;;;;;;5087584;28;20515;-70
2023/01/10 07:05:31;;;;;;;3.75;1.15;;;8.60;99.90;;;;;;5064312;28;20554;-71
2023/01/10 07:08:00;;;;;;;5.72;1.27;;;8.60;99.90;;;;;;5072347;28;20249;-69
2023/01/10 07:10:28;;;;;;;1.67;0.90;;;8.50;99.90;;;;;;5068635;28;20224;-68
2023/01/10 07:12:58;;;;;;;2.13;0.77;;;8.60;99.90;;;;;;5065233;28;20483;-69
2023/01/10 07:15:27;;;;;;;4.50;1.70;;;8.60;99.90;;;;;;5060521;28;20475;-68
2023/01/10 07:17:57;;;;;;;4.73;1.03;;;8.50;99.90;;;;;;5061765;28;20449;-69
2023/01/10 07:20:26;;;;;;;2.45;1.98;;;8.50;99.90;;;;;;5072013;28;20581;-68
2023/01/10 07:22:54;;;;;;;4.18;1.20;;;8.60;99.90;;;;;;5070858;28;20697;-68
2023/01/10 07:25:23;;;;;;;3.13;1.37;;;8.60;99.90;;;;;;5061636;28;20270;-69
2023/01/10 07:27:54;;;;;;;1.97;0.97;;;8.50;99.90;;;;;;5061373;28;20433;-70
2023/01/10 07:30:24;;;;;;;4.25;0.95;;;8.50;99.90;;;;;;5062800;28;20496;-69
2023/01/10 07:32:54;;;;;;;2.33;1.20;;;8.50;99.90;;;;;;5055740;28;20207;-69
2023/01/10 07:35:23;;;;;;;3.75;1.10;;;8.50;99.90;;;;;;5067164;28;20240;-68
2023/01/10 07:37:52;;;;;;;3.03;1.20;;;8.50;99.90;;;;;;5059073;28;20201;-69
2023/01/10 07:40:20;;;;;;;4.85;1.33;;;8.50;99.90;;;;;;5071297;28;20525;-68
2023/01/10 07:42:49;;;;;;;3.63;1.13;;;8.50;99.90;;;;;;5070599;28;20216;-68
2023/01/10 07:45:17;;;;;;;1.63;1.13;;;8.50;99.90;;;;;;5066804;28;20901;-71
2023/01/10 07:47:47;;;;;;;1.50;1.00;;;8.50;99.90;;;;;;5058897;28;20459;-69
2023/01/10 07:50:17;;;;;;;2.90;1.10;;;8.50;99.90;;;;;;5076554;28;20433;-70
2023/01/10 07:52:46;;;;;;;1.50;0.97;;;8.50;99.90;;;;;;5074475;28;20548;-70
2023/01/10 07:55:15;;;;;;;5.45;1.60;;;8.50;99.90;;;;;;5058209;28;20463;-68
2023/01/10 07:57:43;;;;;;;5.15;1.52;;;8.50;99.90;;;;;;5052290;28;20224;-69
2023/01/10 08:00:13;;;;;;;2.15;1.25;;;8.50;99.90;;;;;;5046380;28;20196;-69
2023/01/10 08:02:41;;;;;;;1.80;0.90;;;8.50;99.90;;;;;;5058129;28;20591;-68
2023/01/10 08:05:12;;;;;;;6.30;1.40;;;8.50;99.90;;;;;;5055952;28;20879;-69
2023/01/10 08:07:40;;;;;;;4.28;1.42;;;8.50;99.90;;;;;;5064057;28;20204;-67
2023/01/10 08:10:10;;;;;;;1.37;0.70;;;8.50;99.90;;;;;;5065805;28;20306;-69
2023/01/10 08:12:38;;;;;;;3.92;0.90;;;8.50;99.90;;;;;;5077127;28;20547;-69
2023/01/10 08:15:08;;;;;;;2.30;1.73;;;8.50;99.90;;;;;;5068719;28;20204;-69
2023/01/10 08:17:37;;;;;;;4.32;1.30;;;8.50;99.90;;;;;;5081558;28;20238;-68
2023/01/10 08:20:07;;;;;;;2.97;1.38;;;8.50;99.90;;;;;;5058748;28;20870;-68
2023/01/10 08:22:37;;;;;;;2.05;0.90;;;8.50;99.90;;;;;;5072539;28;20757;-70
2023/01/10 08:25:05;;;;;;;2.28;1.08;;;8.50;99.90;;;;;;5070815;28;20362;-69
2023/01/10 08:27:34;;;;;;;3.97;1.30;;;8.50;99.90;;;;;;5060482;28;20201;-68
2023/01/10 08:30:03;;;;;;;2.63;1.05;;;8.50;99.90;;;;;;5055473;28;20452;-69
2023/01/10 08:32:31;;;;;;;2.40;1.10;;;8.50;99.90;;;;;;5075857;28;20311;-68
2023/01/10 08:35:00;;;;;;;2.97;1.42;;;8.50;99.90;;;;;;5063974;28;20213;-68
2023/01/10 08:37:28;;;;;;;8.82;1.90;;;8.50;99.90;;;;;;5051879;28;20211;-68
2023/01/10 08:39:58;;;;;;;3.47;1.38;;;8.50;99.90;;;;;;5056864;28;20195;-69
2023/01/10 08:42:27;;;;;;;3.80;1.00;;;8.50;99.90;;;;;;5074003;28;20216;-69
2023/01/10 08:44:55;;;;;;;2.03;1.10;;;8.50;99.90;;;;;;5061919;28;20434;-69
2023/01/10 08:47:24;;;;;;;2.03;1.10;;;8.50;99.90;;;;;;5074509;28;20198;-69
2023/01/10 08:49:53;;;;;;;3.17;1.30;;;8.50;99.90;;;;;;5076785;28;20548;-69
2023/01/10 08:52:21;;;;;;;1.85;0.80;;;8.50;99.90;;;;;;5072039;28;20470;-69
2023/01/10 08:54:50;;;;;;;4.38;1.17;;;8.50;99.90;;;;;;5069062;28;20196;-68
2023/01/10 08:57:20;;;;;;;3.30;1.08;;;8.50;99.90;;;;;;5059664;28;20206;-69
2023/01/10 08:59:48;;;;;;;3.33;1.20;;;8.50;99.90;;;;;;5068657;28;20244;-70
2023/01/10 09:02:17;;;;;;;5.50;1.30;;;8.50;99.90;;;;;;5061343;28;20496;-69
2023/01/10 09:04:47;;;;;;;2.45;1.27;;;8.50;99.90;;;;;;5080405;28;20188;-69
2023/01/10 09:07:16;;;;;;;4.15;1.17;;;8.50;99.90;;;;;;5054875;28;20245;-70
2023/01/10 09:09:44;;;;;;;1.67;1.10;;;8.50;99.90;;;;;;5071195;28;20326;-68
2023/01/10 09:15:00;;;;;;;3.43;1.37;;;8.50;99.90;;;;;;5064511;28;20627;-67
2023/01/10 09:17:28;;;;;;;1.67;1.00;;;8.50;99.90;;;;;;5073002;28;20465;-69
2023/01/10 09:19:57;;;;;;;3.07;0.90;;;8.50;99.90;;;;;;5064640;28;20422;-69
2023/01/10 09:22:26;;;;;;;2.83;0.90;;;8.50;99.90;;;;;;5056552;28;20565;-68
2023/01/10 09:24:54;;;;;;;1.20;0.77;;;8.50;99.90;;;;;;5063913;28;20446;-68
2023/01/10 09:27:26;;;;;;;4.30;1.63;;;8.50;99.90;;;;;;5054766;28;20441;-67
2023/01/10 09:29:54;;;;;;;4.03;1.00;;;8.50;99.90;;;;;;5073617;28;20197;-68
2023/01/10 09:32:24;;;;;;;2.00;1.20;;;8.50;99.90;;;;;;5078232;28;21073;-69
2023/01/10 09:34:54;;;;;;;5.25;1.10;;;8.50;99.90;;;;;;5067373;28;20303;-68
2023/01/10 09:37:22;;;;;;;7.13;1.15;;;8.50;99.90;;;;;;5069864;28;20284;-67
2023/01/10 09:39:51;;;;;;;1.88;0.80;;;8.50;99.90;;;;;;5072417;28;20740;-68
2023/01/10 09:42:31;;;;;;;1.55;0.93;;;8.50;99.90;;;;;;5070282;28;20257;-68
2023/01/10 09:45:06;;;;;;;1.45;0.80;;;8.50;99.90;;;;;;5070027;28;20218;-69
2023/01/10 09:47:45;;;;;;;4.25;1.17;;;8.50;99.90;;;;;;5074680;28;20693;-74
2023/01/10 09:50:21;;;;;;;2.70;1.02;;;8.50;99.90;;;;;;5061567;28;20579;-75
2023/01/10 09:52:57;;;;;;;3.10;1.00;;;8.50;99.90;;;;;;5058808;28;20320;-74
2023/01/10 09:55:29;;;;;;;1.30;0.90;;;8.60;99.90;;;;;;5070446;28;20867;-75
2023/01/10 09:58:05;;;;;;;2.90;1.10;;;8.50;99.90;;;;;;5055146;28;20257;-74
2023/01/10 10:00:42;;;;;;;1.23;0.97;;;8.50;99.90;;;;;;5063587;28;20565;-75
2023/01/10 10:03:20;;;;;;;4.37;1.10;;;8.50;99.90;;;;;;5072952;28;20469;-74
2023/01/10 10:05:50;;;;;;;1.90;0.80;;;8.50;99.90;;;;;;5060234;28;21025;-75
2023/01/10 10:08:25;;;;;;;4.30;1.60;;;8.50;99.90;;;;;;5042306;28;20228;-73
2023/01/10 10:11:16;;;;;;;2.60;0.90;;;8.50;99.90;;;;;;5057412;28;20460;-74
2023/01/10 10:13:50;;;;;;;1.42;1.00;;;8.50;99.90;;;;;;5055205;28;20440;-73
2023/01/10 10:16:30;;;;;;;3.45;0.80;;;8.50;99.90;;;;;;5049064;28;20209;-73
2023/01/10 10:19:14;;;;;;;1.67;0.85;;;8.50;99.90;;;;;;5042326;28;20216;-74
2023/01/10 10:21:54;;;;;;;3.33;1.13;;;8.50;99.90;;;;;;5071672;28;20237;-73
2023/01/10 10:24:33;;;;;;;2.50;1.57;;;8.50;99.90;;;;;;5057884;28;20439;-73
2023/01/10 10:27:09;;;;;;;3.28;1.00;;;8.50;99.90;;;;;;5079762;28;20506;-74
2023/01/10 10:30:03;;;;;;;2.22;1.15;;;8.50;99.90;;;;;;5063878;28;20283;-73
2023/01/10 10:33:00;;;;;;;5.68;0.80;;;8.50;99.90;;;;;;5057789;28;20690;-75
2023/01/10 10:35:35;;;;;;;0.93;0.87;;;8.50;99.90;;;;;;5084681;28;20215;-74
2023/01/10 10:38:10;;;;;;;2.40;1.20;;;8.50;99.90;;;;;;5071451;28;20485;-74
2023/01/10 10:40:42;;;;;;;2.13;1.00;;;8.50;99.90;;;;;;5059960;28;20546;-75
2023/01/10 10:43:18;;;;;;;3.42;1.10;;;8.50;99.90;;;;;;5072726;28;20211;-74
2023/01/10 10:45:50;;;;;;;5.03;2.75;;;8.50;99.90;;;;;;5058961;28;20212;-75
2023/01/10 10:48:24;;;;;;;4.68;1.63;;;8.50;99.90;;;;;;5058175;28;20799;-74
2023/01/10 10:51:02;;;;;;;1.65;1.05;;;8.50;99.90;;;;;;5056695;28;20227;-75
2023/01/10 10:53:36;;;;;;;2.10;0.90;;;8.50;99.90;;;;;;5064178;28;20714;-73
2023/01/10 10:56:07;;;;;;;3.37;1.07;;;8.50;99.90;;;;;;5053629;28;20308;-73
2023/01/10 10:58:40;;;;;;;3.38;1.45;;;8.50;99.90;;;;;;5053605;28;20475;-73
2023/01/10 11:01:12;;;;;;;1.80;1.10;;;8.50;99.90;;;;;;5063790;28;20713;-74
2023/01/10 11:03:46;;;;;;;2.42;0.70;;;8.50;99.90;;;;;;5063811;28;20452;-74
2023/01/10 11:06:19;;;;;;;4.00;1.27;;;8.50;99.90;;;;;;5066246;28;20232;-74
2023/01/10 11:08:50;;;;;;;3.65;1.17;;;8.50;99.90;;;;;;5062756;28;20439;-73
2023/01/10 11:11:23;;;;;;;1.40;0.63;;;8.50;99.90;;;;;;5055936;28;20742;-74
2023/01/10 11:13:54;;;;;;;3.10;1.30;;;8.50;99.90;;;;;;5071227;28;20437;-73
2023/01/10 11:16:26;;;;;;;1.98;0.82;;;8.50;99.90;;;;;;5065545;28;20216;-75
2023/01/10 11:19:15;;;;;;;1.90;1.03;;;8.50;99.90;;;;;;5064524;28;20232;-72
2023/01/10 11:21:53;;;;;;;2.07;0.90;;;8.50;99.90;;;;;;5062670;28;21114;-76
2023/01/10 11:24:28;;;;;;;3.55;0.80;;;8.50;99.90;;;;;;5077442;28;20498;-75
2023/01/10 11:27:01;;;;;;;1.73;0.70;;;8.50;99.90;;;;;;5070846;28;20299;-73
2023/01/10 11:29:37;;;;;;;1.63;1.20;;;8.50;99.90;;;;;;5069165;28;20439;-75
2023/01/10 11:32:14;;;;;;;3.05;1.00;;;8.50;99.90;;;;;;5065211;28;20952;-67
2023/01/10 11:34:52;;;;;;;4.97;1.40;;;8.50;99.90;;;;;;5067853;28;20273;-75
2023/01/10 11:37:27;;;;;;;3.20;1.00;;;8.50;99.90;;;;;;5075463;28;20488;-73
2023/01/10 11:40:17;;;;;;;2.70;0.90;;;8.50;99.90;;;;;;5054805;28;20467;-74
2023/01/10 11:42:47;;;;;;;7.33;1.10;;;8.50;99.90;;;;;;5069315;28;20563;-73
2023/01/10 11:45:23;;;;;;;4.45;0.75;;;8.50;99.90;;;;;;5066427;28;20570;-73
2023/01/10 11:47:56;;;;;;;2.97;1.20;;;8.50;99.90;;;;;;5063105;28;20658;-74
2023/01/10 11:50:27;;;;;;;3.03;1.10;;;8.50;99.90;;;;;;5076631;28;20439;-74
2023/01/10 11:52:58;;;;;;;4.22;1.20;;;8.50;99.90;;;;;;5061445;28;20882;-73
2023/01/10 11:55:29;;;;;;;2.70;0.95;;;8.50;99.90;;;;;;5068324;28;20221;-75
2023/01/10 11:58:03;;;;;;;2.23;0.87;;;8.50;99.90;;;;;;5064520;28;20287;-74
2023/01/10 12:00:34;;;;;;;3.70;1.15;;;8.50;99.90;;;;;;5067637;28;20438;-75
2023/01/10 12:03:14;;;;;;;3.53;1.20;;;8.50;99.90;;;;;;5066376;28;20220;-73
2023/01/10 12:05:52;;;;;;;1.38;0.90;;;8.50;99.90;;;;;;5064818;28;20527;-74
2023/01/10 12:08:29;;;;;;;2.22;1.10;;;8.50;99.90;;;;;;5069966;28;20195;-75
2023/01/10 12:11:01;;;;;;;2.97;0.90;;;8.40;99.90;;;;;;5051517;28;20255;-75
2023/01/10 12:13:42;;;;;;;5.30;1.00;;;8.50;99.90;;;;;;5069296;28;20449;-74
2023/01/10 12:16:23;;;;;;;2.55;1.13;;;8.40;99.90;;;;;;5061356;28;20262;-74
2023/01/10 12:18:53;;;;;;;1.27;0.80;;;8.50;99.90;;;;;;5081279;28;20692;-74
2023/01/10 12:21:27;;;;;;;2.67;1.30;;;8.40;99.90;;;;;;5065416;28;20219;-74
2023/01/10 12:24:01;;;;;;;1.95;1.15;;;8.40;99.90;;;;;;5064774;28;20196;-74
2023/01/10 12:26:33;;;;;;;7.93;2.17;;;8.40;99.90;;;;;;5065320;28;20257;-73
2023/01/10 12:29:08;;;;;;;3.53;1.27;;;8.40;99.90;;;;;;5069444;28;20677;-74
2023/01/10 12:31:39;;;;;;;3.00;1.03;;;8.40;99.90;;;;;;5070656;28;20481;-74
2023/01/10 12:34:18;;;;;;;1.65;1.05;;;8.40;99.90;;;;;;5060961;28;20437;-75
2023/01/10 12:36:59;;;;;;;2.88;1.38;;;8.40;99.90;;;;;;5081579;28;20703;-74
2023/01/10 12:39:33;;;;;;;4.55;1.35;;;8.40;99.90;;;;;;5066601;28;20616;-75
2023/01/10 12:45:12;;;;;;;2.58;1.20;;;8.40;99.90;;;;;;5068167;28;20453;-75
2023/01/10 12:47:54;;;;;;;2.72;0.90;;;8.40;99.90;;;;;;5080935;28;20201;-75
2023/01/10 12:50:26;;;;;;;7.35;1.48;;;8.40;99.90;;;;;;5063926;28;20429;-73
2023/01/10 12:53:00;;;;;;;3.50;1.35;;;8.40;99.90;;;;;;5073426;28;20216;-73
2023/01/10 12:55:35;;;;;;;3.03;1.03;;;8.40;99.90;;;;;;5058938;28;20273;-73
2023/01/10 12:58:05;;;;;;;2.88;1.10;;;8.40;99.90;;;;;;5082080;28;20974;-73
2023/01/10 13:00:37;;;;;;;2.65;1.42;;;8.40;99.90;;;;;;5061154;28;20227;-74
2023/01/10 13:03:21;;;;;;;2.30;0.90;;;8.40;99.90;;;;;;5069589;28;20216;-74
2023/01/10 13:05:51;;;;;;;3.20;1.30;;;8.40;99.90;;;;;;5063491;28;20983;-73
2023/01/10 13:08:23;;;;;;;2.65;1.20;;;8.40;99.90;;;;;;5063805;28;20434;-75
2023/01/10 13:10:56;;;;;;;2.35;1.10;;;8.40;99.90;;;;;;5063525;28;20225;-73
2023/01/10 13:13:33;;;;;;;3.47;1.60;;;8.40;99.90;;;;;;5081856;28;20203;-74
2023/01/10 13:16:18;;;;;;;1.60;1.00;;;8.40;99.90;;;;;;5050557;28;20234;-73
2023/01/10 13:19:01;;;;;;;1.33;1.03;;;8.40;99.90;;;;;;5068369;28;20463;-75
2023/01/10 13:21:31;;;;;;;2.65;1.25;;;8.40;99.90;;;;;;5072765;28;21060;-74
2023/01/10 13:24:02;;;;;;;3.45;1.90;;;8.40;99.90;;;;;;5061639;28;20552;-73
2023/01/10 13:26:52;;;;;;;2.90;1.13;;;8.40;99.90;;;;;;5086305;28;20244;-74
2023/01/10 13:29:23;;;;;;;3.10;1.10;;;8.40;99.90;;;;;;5074931;28;20434;-73
2023/01/10 13:31:56;;;;;;;3.47;1.15;;;8.40;99.90;;;;;;5078696;28;20499;-74
2023/01/10 13:34:32;;;;;;;3.60;1.47;;;8.40;99.90;;;;;;5070686;28;20642;-74